sensor_id;sensor_type;location;lat;lon;timestamp;temperature;humidity
8565;DHT22;4320;51.498;6.556;2023-07-29T00:01:44;20.80;99.90
8565;DHT22;4320;51.498;6.556;2023-07-29T00:04:11;20.80;99.90
8565;DHT22;4320;51.498;6.556;2023-07-29T00:06:37;20.70;99.90
8565;DHT22;4320;51.498;6.556;2023-07-29T00:09:03;20.70;99.90
8565;DHT22;4320;51.498;6.556;2023-07-29T00:11:28;20.70;99.90
8565;DHT22;4320;51.498;6.556;2023-07-29T00:13:54;20.70;99.90
8565;DHT22;4320;51.498;6.556;2023-07-29T00:16:20;20.70;99.90
8565;DHT22;4320;51.498;6.556;2023-07-29T00:18:49;20.60;99.90
8565;DHT22;4320;51.498;6.556;2023-07-29T00:21:15;20.60;99.90
8565;DHT22;4320;51.498;6.556;2023-07-29T00:23:40;20.70;99.90
8565;DHT22;4320;51.498;6.556;2023-07-29T00:26:06;20.70;99.90
8565;DHT22;4320;51.498;6.556;2023-07-29T00:28:31;20.70;99.90
8565;DHT22;4320;51.498;6.556;2023-07-29T00:30:57;20.70;99.90
8565;DHT22;4320;51.498;6.556;2023-07-29T00:33:23;20.80;99.90
8565;DHT22;4320;51.498;6.556;2023-07-29T00:35:48;20.70;99.90
8565;DHT22;4320;51.498;6.556;2023-07-29T00:38:14;20.70;99.90
8565;DHT22;4320;51.498;6.556;2023-07-29T00:40:40;20.70;99.90
8565;DHT22;4320;51.498;6.556;2023-07-29T00:43:05;20.70;99.90
8565;DHT22;4320;51.498;6.556;2023-07-29T00:45:32;20.70;99.90
8565;DHT22;4320;51.498;6.556;2023-07-29T00:47:59;20.70;99.90
8565;DHT22;4320;51.498;6.556;2023-07-29T00:50:25;20.70;99.90
8565;DHT22;4320;51.498;6.556;2023-07-29T00:52:53;20.70;99.90
8565;DHT22;4320;51.498;6.556;2023-07-29T00:55:19;20.70;99.90
8565;DHT22;4320;51.498;6.556;2023-07-29T00:57:45;20.80;99.90
8565;DHT22;4320;51.498;6.556;2023-07-29T01:00:14;20.80;99.90
8565;DHT22;4320;51.498;6.556;2023-07-29T01:02:41;20.80;99.90
8565;DHT22;4320;51.498;6.556;2023-07-29T01:05:06;20.80;99.90
8565;DHT22;4320;51.498;6.556;2023-07-29T01:08:12;20.70;99.90
8565;DHT22;4320;51.498;6.556;2023-07-29T01:10:43;20.80;99.90
8565;DHT22;4320;51.498;6.556;2023-07-29T01:13:41;20.70;99.90
8565;DHT22;4320;51.498;6.556;2023-07-29T01:16:15;20.70;99.90
8565;DHT22;4320;51.498;6.556;2023-07-29T01:18:46;20.80;99.90
8565;DHT22;4320;51.498;6.556;2023-07-29T01:21:13;20.70;99.90
8565;DHT22;4320;51.498;6.556;2023-07-29T01:23:39;20.50;99.90
8565;DHT22;4320;51.498;6.556;2023-07-29T01:26:05;20.60;99.90
8565;DHT22;4320;51.498;6.556;2023-07-29T01:28:31;20.70;99.90
8565;DHT22;4320;51.498;6.556;2023-07-29T01:31:10;20.80;99.90
8565;DHT22;4320;51.498;6.556;2023-07-29T01:33:42;20.80;99.90
8565;DHT22;4320;51.498;6.556;2023-07-29T01:36:17;20.80;99.90
8565;DHT22;4320;51.498;6.556;2023-07-29T01:38:44;20.80;99.90
8565;DHT22;4320;51.498;6.556;2023-07-29T01:41:10;20.80;99.90
8565;DHT22;4320;51.498;6.556;2023-07-29T01:43:37;20.80;99.90
8565;DHT22;4320;51.498;6.556;2023-07-29T01:46:15;20.80;99.90
8565;DHT22;4320;51.498;6.556;2023-07-29T01:48:41;20.90;99.90
8565;DHT22;4320;51.498;6.556;2023-07-29T01:51:08;20.90;99.90
8565;DHT22;4320;51.498;6.556;2023-07-29T01:53:34;20.90;99.90
8565;DHT22;4320;51.498;6.556;2023-07-29T01:56:00;20.90;99.90
8565;DHT22;4320;51.498;6.556;2023-07-29T01:58:27;20.80;99.90
8565;DHT22;4320;51.498;6.556;2023-07-29T02:00:52;20.90;99.90
8565;DHT22;4320;51.498;6.556;2023-07-29T02:03:18;20.90;99.90
8565;DHT22;4320;51.498;6.556;2023-07-29T02:05:43;20.90;99.90
8565;DHT22;4320;51.498;6.556;2023-07-29T02:08:09;20.90;99.90
8565;DHT22;4320;51.498;6.556;2023-07-29T02:10:35;20.90;99.90
8565;DHT22;4320;51.498;6.556;2023-07-29T02:13:01;20.90;99.90
8565;DHT22;4320;51.498;6.556;2023-07-29T02:15:26;20.90;99.90
8565;DHT22;4320;51.498;6.556;2023-07-29T02:17:53;20.80;99.90
8565;DHT22;4320;51.498;6.556;2023-07-29T02:20:19;20.80;99.90
8565;DHT22;4320;51.498;6.556;2023-07-29T02:22:45;20.80;99.90
8565;DHT22;4320;51.498;6.556;2023-07-29T02:25:11;20.80;99.90
8565;DHT22;4320;51.498;6.556;2023-07-29T02:27:36;20.80;99.90
8565;DHT22;4320;51.498;6.556;2023-07-29T02:30:02;20.80;99.90
8565;DHT22;4320;51.498;6.556;2023-07-29T02:32:28;20.90;99.90
8565;DHT22;4320;51.498;6.556;2023-07-29T02:34:54;20.80;99.90
8565;DHT22;4320;51.498;6.556;2023-07-29T02:37:20;20.90;99.90
8565;DHT22;4320;51.498;6.556;2023-07-29T02:39:46;20.90;99.90
8565;DHT22;4320;51.498;6.556;2023-07-29T02:42:11;20.90;99.90
8565;DHT22;4320;51.498;6.556;2023-07-29T02:44:37;20.90;99.90
8565;DHT22;4320;51.498;6.556;2023-07-29T02:47:03;20.90;99.90
8565;DHT22;4320;51.498;6.556;2023-07-29T02:49:29;20.80;99.90
8565;DHT22;4320;51.498;6.556;2023-07-29T02:51:54;20.80;99.90
8565;DHT22;4320;51.498;6.556;2023-07-29T02:54:20;20.80;99.90
8565;DHT22;4320;51.498;6.556;2023-07-29T02:56:46;20.80;99.90
8565;DHT22;4320;51.498;6.556;2023-07-29T02:59:11;20.80;99.90
8565;DHT22;4320;51.498;6.556;2023-07-29T03:01:37;20.80;99.90
8565;DHT22;4320;51.498;6.556;2023-07-29T03:04:03;20.80;99.90
8565;DHT22;4320;51.498;6.556;2023-07-29T03:06:28;20.80;99.90
8565;DHT22;4320;51.498;6.556;2023-07-29T03:08:54;20.80;99.90
8565;DHT22;4320;51.498;6.556;2023-07-29T03:11:20;20.80;99.90
8565;DHT22;4320;51.498;6.556;2023-07-29T03:13:45;20.70;99.90
8565;DHT22;4320;51.498;6.556;2023-07-29T03:16:15;20.60;99.90
8565;DHT22;4320;51.498;6.556;2023-07-29T03:18:43;20.60;99.90
8565;DHT22;4320;51.498;6.556;2023-07-29T03:21:09;20.50;1.00
8565;DHT22;4320;51.498;6.556;2023-07-29T03:23:35;20.30;1.00
8565;DHT22;4320;51.498;6.556;2023-07-29T03:26:02;20.20;1.00
8565;DHT22;4320;51.498;6.556;2023-07-29T03:28:35;20.30;1.00
8565;DHT22;4320;51.498;6.556;2023-07-29T03:31:01;20.40;1.00
8565;DHT22;4320;51.498;6.556;2023-07-29T03:33:27;20.40;1.00
8565;DHT22;4320;51.498;6.556;2023-07-29T03:35:53;20.40;1.00
8565;DHT22;4320;51.498;6.556;2023-07-29T03:38:19;20.40;99.90
8565;DHT22;4320;51.498;6.556;2023-07-29T03:40:44;20.30;99.90
8565;DHT22;4320;51.498;6.556;2023-07-29T03:43:10;20.30;99.90
8565;DHT22;4320;51.498;6.556;2023-07-29T03:45:36;20.30;99.90
8565;DHT22;4320;51.498;6.556;2023-07-29T03:48:02;20.30;99.90
8565;DHT22;4320;51.498;6.556;2023-07-29T03:50:29;20.30;99.90
8565;DHT22;4320;51.498;6.556;2023-07-29T03:52:55;20.30;99.90
8565;DHT22;4320;51.498;6.556;2023-07-29T03:55:21;20.40;99.90
8565;DHT22;4320;51.498;6.556;2023-07-29T03:57:47;20.20;99.90
8565;DHT22;4320;51.498;6.556;2023-07-29T04:00:13;20.20;99.90
8565;DHT22;4320;51.498;6.556;2023-07-29T04:02:38;20.20;99.90
8565;DHT22;4320;51.498;6.556;2023-07-29T04:05:04;20.20;99.90
8565;DHT22;4320;51.498;6.556;2023-07-29T04:07:30;20.20;99.90
8565;DHT22;4320;51.498;6.556;2023-07-29T04:09:56;20.30;99.90
8565;DHT22;4320;51.498;6.556;2023-07-29T04:12:22;20.10;99.90
8565;DHT22;4320;51.498;6.556;2023-07-29T04:14:48;20.10;99.90
8565;DHT22;4320;51.498;6.556;2023-07-29T04:17:14;20.00;99.90
8565;DHT22;4320;51.498;6.556;2023-07-29T04:19:40;19.90;99.90
8565;DHT22;4320;51.498;6.556;2023-07-29T04:22:05;19.90;99.90
8565;DHT22;4320;51.498;6.556;2023-07-29T04:24:31;19.70;99.90
8565;DHT22;4320;51.498;6.556;2023-07-29T04:26:57;19.70;99.90
8565;DHT22;4320;51.498;6.556;2023-07-29T04:29:22;19.70;99.90
8565;DHT22;4320;51.498;6.556;2023-07-29T04:31:51;19.60;99.90
8565;DHT22;4320;51.498;6.556;2023-07-29T04:34:18;19.60;99.90
8565;DHT22;4320;51.498;6.556;2023-07-29T04:36:47;19.60;99.90
8565;DHT22;4320;51.498;6.556;2023-07-29T04:39:13;19.70;99.90
8565;DHT22;4320;51.498;6.556;2023-07-29T04:41:39;19.60;99.90
8565;DHT22;4320;51.498;6.556;2023-07-29T04:44:05;19.60;99.90
8565;DHT22;4320;51.498;6.556;2023-07-29T04:46:31;19.50;99.90
8565;DHT22;4320;51.498;6.556;2023-07-29T04:48:56;19.50;99.90
8565;DHT22;4320;51.498;6.556;2023-07-29T04:51:22;19.50;99.90
8565;DHT22;4320;51.498;6.556;2023-07-29T04:53:48;19.30;99.90
8565;DHT22;4320;51.498;6.556;2023-07-29T04:56:14;19.10;99.90
8565;DHT22;4320;51.498;6.556;2023-07-29T04:58:39;19.20;99.90
8565;DHT22;4320;51.498;6.556;2023-07-29T05:01:06;19.30;99.90
8565;DHT22;4320;51.498;6.556;2023-07-29T05:03:31;19.50;99.90
8565;DHT22;4320;51.498;6.556;2023-07-29T05:05:58;19.60;99.90
8565;DHT22;4320;51.498;6.556;2023-07-29T05:08:27;19.70;99.90
8565;DHT22;4320;51.498;6.556;2023-07-29T05:10:53;19.80;99.90
8565;DHT22;4320;51.498;6.556;2023-07-29T05:13:20;19.90;99.90
8565;DHT22;4320;51.498;6.556;2023-07-29T05:15:47;19.90;99.90
8565;DHT22;4320;51.498;6.556;2023-07-29T05:18:14;19.90;99.90
8565;DHT22;4320;51.498;6.556;2023-07-29T05:20:40;19.90;99.90
8565;DHT22;4320;51.498;6.556;2023-07-29T05:23:05;19.90;99.90
8565;DHT22;4320;51.498;6.556;2023-07-29T05:25:31;19.70;99.90
8565;DHT22;4320;51.498;6.556;2023-07-29T05:27:56;19.60;99.90
8565;DHT22;4320;51.498;6.556;2023-07-29T05:30:22;19.60;99.90
8565;DHT22;4320;51.498;6.556;2023-07-29T05:32:48;19.70;99.90
8565;DHT22;4320;51.498;6.556;2023-07-29T05:35:14;19.70;99.90
8565;DHT22;4320;51.498;6.556;2023-07-29T05:37:40;19.80;99.90
8565;DHT22;4320;51.498;6.556;2023-07-29T05:40:07;19.80;99.90
8565;DHT22;4320;51.498;6.556;2023-07-29T05:42:34;19.70;99.90
8565;DHT22;4320;51.498;6.556;2023-07-29T05:44:59;19.70;99.90
8565;DHT22;4320;51.498;6.556;2023-07-29T05:47:25;19.70;99.90
8565;DHT22;4320;51.498;6.556;2023-07-29T05:49:51;19.70;99.90
8565;DHT22;4320;51.498;6.556;2023-07-29T05:52:17;19.80;99.90
8565;DHT22;4320;51.498;6.556;2023-07-29T05:54:43;19.70;99.90
8565;DHT22;4320;51.498;6.556;2023-07-29T05:57:11;19.70;99.90
8565;DHT22;4320;51.498;6.556;2023-07-29T05:59:37;19.60;99.90
8565;DHT22;4320;51.498;6.556;2023-07-29T06:02:03;19.60;99.90
8565;DHT22;4320;51.498;6.556;2023-07-29T06:04:29;19.60;99.90
8565;DHT22;4320;51.498;6.556;2023-07-29T06:06:55;19.50;99.90
8565;DHT22;4320;51.498;6.556;2023-07-29T06:09:21;19.50;99.90
8565;DHT22;4320;51.498;6.556;2023-07-29T06:11:47;19.70;99.90
8565;DHT22;4320;51.498;6.556;2023-07-29T06:14:13;19.60;99.90
8565;DHT22;4320;51.498;6.556;2023-07-29T06:16:38;19.70;99.90
8565;DHT22;4320;51.498;6.556;2023-07-29T06:19:04;19.70;99.90
8565;DHT22;4320;51.498;6.556;2023-07-29T06:21:30;19.90;99.90
8565;DHT22;4320;51.498;6.556;2023-07-29T06:23:56;19.90;99.90
8565;DHT22;4320;51.498;6.556;2023-07-29T06:26:21;19.80;99.90
8565;DHT22;4320;51.498;6.556;2023-07-29T06:28:47;19.70;99.90
8565;DHT22;4320;51.498;6.556;2023-07-29T06:31:12;19.60;99.90
8565;DHT22;4320;51.498;6.556;2023-07-29T06:33:38;19.70;99.90
8565;DHT22;4320;51.498;6.556;2023-07-29T06:36:04;19.80;99.90
8565;DHT22;4320;51.498;6.556;2023-07-29T06:38:30;19.80;99.90
8565;DHT22;4320;51.498;6.556;2023-07-29T06:40:56;19.90;99.90
8565;DHT22;4320;51.498;6.556;2023-07-29T06:43:21;19.90;99.90
8565;DHT22;4320;51.498;6.556;2023-07-29T06:45:47;19.70;99.90
8565;DHT22;4320;51.498;6.556;2023-07-29T06:48:12;19.90;99.90
8565;DHT22;4320;51.498;6.556;2023-07-29T06:50:38;20.10;99.90
8565;DHT22;4320;51.498;6.556;2023-07-29T06:53:04;20.20;99.90
8565;DHT22;4320;51.498;6.556;2023-07-29T06:55:29;20.20;99.90
8565;DHT22;4320;51.498;6.556;2023-07-29T06:57:55;20.30;99.90
8565;DHT22;4320;51.498;6.556;2023-07-29T07:00:21;20.40;99.90
8565;DHT22;4320;51.498;6.556;2023-07-29T07:02:46;20.50;99.90
8565;DHT22;4320;51.498;6.556;2023-07-29T07:05:12;20.50;99.90
8565;DHT22;4320;51.498;6.556;2023-07-29T07:07:38;20.60;99.90
8565;DHT22;4320;51.498;6.556;2023-07-29T07:10:04;20.50;99.90
8565;DHT22;4320;51.498;6.556;2023-07-29T07:12:29;20.60;99.90
8565;DHT22;4320;51.498;6.556;2023-07-29T07:14:55;20.60;99.90
8565;DHT22;4320;51.498;6.556;2023-07-29T07:17:20;20.70;99.90
8565;DHT22;4320;51.498;6.556;2023-07-29T07:19:46;20.60;99.90
8565;DHT22;4320;51.498;6.556;2023-07-29T07:22:12;20.80;99.90
8565;DHT22;4320;51.498;6.556;2023-07-29T07:24:37;20.80;99.90
8565;DHT22;4320;51.498;6.556;2023-07-29T07:27:03;20.70;99.90
8565;DHT22;4320;51.498;6.556;2023-07-29T07:29:29;20.50;99.90
8565;DHT22;4320;51.498;6.556;2023-07-29T07:31:56;20.70;99.90
8565;DHT22;4320;51.498;6.556;2023-07-29T07:34:22;20.80;99.90
8565;DHT22;4320;51.498;6.556;2023-07-29T07:36:48;20.90;99.90
8565;DHT22;4320;51.498;6.556;2023-07-29T07:39:14;21.00;99.90
8565;DHT22;4320;51.498;6.556;2023-07-29T07:41:41;20.90;99.90
8565;DHT22;4320;51.498;6.556;2023-07-29T07:44:07;21.10;99.90
8565;DHT22;4320;51.498;6.556;2023-07-29T07:46:33;21.10;99.90
8565;DHT22;4320;51.498;6.556;2023-07-29T07:48:59;21.20;99.90
8565;DHT22;4320;51.498;6.556;2023-07-29T07:51:24;21.70;99.90
8565;DHT22;4320;51.498;6.556;2023-07-29T07:53:50;21.80;99.90
8565;DHT22;4320;51.498;6.556;2023-07-29T07:56:15;21.60;99.90
8565;DHT22;4320;51.498;6.556;2023-07-29T07:58:41;21.70;99.90
8565;DHT22;4320;51.498;6.556;2023-07-29T08:01:08;21.80;99.90
8565;DHT22;4320;51.498;6.556;2023-07-29T08:03:34;21.90;99.90
8565;DHT22;4320;51.498;6.556;2023-07-29T08:06:00;21.50;99.90
8565;DHT22;4320;51.498;6.556;2023-07-29T08:08:27;21.30;99.90
8565;DHT22;4320;51.498;6.556;2023-07-29T08:10:54;21.00;99.90
8565;DHT22;4320;51.498;6.556;2023-07-29T08:13:23;21.10;99.90
8565;DHT22;4320;51.498;6.556;2023-07-29T08:15:51;21.10;99.90
8565;DHT22;4320;51.498;6.556;2023-07-29T08:18:17;21.30;99.90
8565;DHT22;4320;51.498;6.556;2023-07-29T08:20:56;21.40;99.90
8565;DHT22;4320;51.498;6.556;2023-07-29T08:23:32;21.50;99.90
8565;DHT22;4320;51.498;6.556;2023-07-29T08:26:00;21.40;99.90
8565;DHT22;4320;51.498;6.556;2023-07-29T08:28:35;21.40;99.90
8565;DHT22;4320;51.498;6.556;2023-07-29T08:31:01;21.40;99.90
8565;DHT22;4320;51.498;6.556;2023-07-29T08:33:27;21.70;99.90
8565;DHT22;4320;51.498;6.556;2023-07-29T08:35:53;21.70;99.90
8565;DHT22;4320;51.498;6.556;2023-07-29T08:38:20;21.50;99.90
8565;DHT22;4320;51.498;6.556;2023-07-29T08:41:03;21.70;99.90
8565;DHT22;4320;51.498;6.556;2023-07-29T08:43:32;21.80;99.90
8565;DHT22;4320;51.498;6.556;2023-07-29T08:45:58;21.90;99.90
8565;DHT22;4320;51.498;6.556;2023-07-29T08:48:41;21.90;99.90
8565;DHT22;4320;51.498;6.556;2023-07-29T08:51:11;21.80;99.90
8565;DHT22;4320;51.498;6.556;2023-07-29T08:53:38;21.70;99.90
8565;DHT22;4320;51.498;6.556;2023-07-29T08:56:04;21.70;99.90
8565;DHT22;4320;51.498;6.556;2023-07-29T08:58:31;21.70;99.90
8565;DHT22;4320;51.498;6.556;2023-07-29T09:00:57;21.60;99.90
8565;DHT22;4320;51.498;6.556;2023-07-29T09:03:22;21.70;99.90
8565;DHT22;4320;51.498;6.556;2023-07-29T09:05:48;21.70;99.90
8565;DHT22;4320;51.498;6.556;2023-07-29T09:08:14;21.50;99.90
8565;DHT22;4320;51.498;6.556;2023-07-29T09:10:40;21.50;99.90
8565;DHT22;4320;51.498;6.556;2023-07-29T09:13:07;21.40;99.90
8565;DHT22;4320;51.498;6.556;2023-07-29T09:15:35;21.40;99.90
8565;DHT22;4320;51.498;6.556;2023-07-29T09:18:14;21.30;99.90
8565;DHT22;4320;51.498;6.556;2023-07-29T09:20:40;21.40;99.90
8565;DHT22;4320;51.498;6.556;2023-07-29T09:23:10;21.60;99.90
8565;DHT22;4320;51.498;6.556;2023-07-29T09:25:36;21.60;99.90
8565;DHT22;4320;51.498;6.556;2023-07-29T09:28:11;21.90;99.90
8565;DHT22;4320;51.498;6.556;2023-07-29T09:30:42;22.10;99.90
8565;DHT22;4320;51.498;6.556;2023-07-29T09:33:10;21.90;99.90
8565;DHT22;4320;51.498;6.556;2023-07-29T09:35:37;21.90;99.90
8565;DHT22;4320;51.498;6.556;2023-07-29T09:38:04;21.90;99.90
8565;DHT22;4320;51.498;6.556;2023-07-29T09:40:37;22.10;99.90
8565;DHT22;4320;51.498;6.556;2023-07-29T09:43:04;22.00;99.90
8565;DHT22;4320;51.498;6.556;2023-07-29T09:45:32;22.10;99.90
8565;DHT22;4320;51.498;6.556;2023-07-29T09:47:58;22.20;99.90
8565;DHT22;4320;51.498;6.556;2023-07-29T09:50:24;22.20;99.90
8565;DHT22;4320;51.498;6.556;2023-07-29T09:52:52;22.00;99.90
8565;DHT22;4320;51.498;6.556;2023-07-29T09:55:19;22.20;99.90
8565;DHT22;4320;51.498;6.556;2023-07-29T09:57:45;22.40;99.90
8565;DHT22;4320;51.498;6.556;2023-07-29T10:00:11;22.40;99.90
8565;DHT22;4320;51.498;6.556;2023-07-29T10:02:42;22.50;99.90
8565;DHT22;4320;51.498;6.556;2023-07-29T10:05:09;22.60;99.90
8565;DHT22;4320;51.498;6.556;2023-07-29T10:07:39;22.80;99.90
8565;DHT22;4320;51.498;6.556;2023-07-29T10:10:06;22.80;99.90
8565;DHT22;4320;51.498;6.556;2023-07-29T10:12:33;22.90;99.90
8565;DHT22;4320;51.498;6.556;2023-07-29T10:15:05;23.20;99.90
8565;DHT22;4320;51.498;6.556;2023-07-29T10:17:36;23.30;99.90
8565;DHT22;4320;51.498;6.556;2023-07-29T10:20:07;23.40;99.90
8565;DHT22;4320;51.498;6.556;2023-07-29T10:22:37;23.30;99.90
8565;DHT22;4320;51.498;6.556;2023-07-29T10:25:06;23.30;99.90
8565;DHT22;4320;51.498;6.556;2023-07-29T10:27:55;23.00;99.90
8565;DHT22;4320;51.498;6.556;2023-07-29T10:30:21;22.90;99.90
8565;DHT22;4320;51.498;6.556;2023-07-29T10:32:49;22.90;99.90
8565;DHT22;4320;51.498;6.556;2023-07-29T10:35:15;22.90;99.90
8565;DHT22;4320;51.498;6.556;2023-07-29T10:37:42;22.90;99.90
8565;DHT22;4320;51.498;6.556;2023-07-29T10:40:09;23.10;99.90
8565;DHT22;4320;51.498;6.556;2023-07-29T10:42:40;23.10;99.90
8565;DHT22;4320;51.498;6.556;2023-07-29T10:45:22;23.20;99.90
8565;DHT22;4320;51.498;6.556;2023-07-29T10:47:48;23.20;93.10
8565;DHT22;4320;51.498;6.556;2023-07-29T10:50:21;23.30;86.70
8565;DHT22;4320;51.498;6.556;2023-07-29T10:52:51;23.30;85.50
8565;DHT22;4320;51.498;6.556;2023-07-29T10:55:34;23.50;83.30
8565;DHT22;4320;51.498;6.556;2023-07-29T10:58:12;23.50;79.40
8565;DHT22;4320;51.498;6.556;2023-07-29T11:00:41;23.50;75.00
8565;DHT22;4320;51.498;6.556;2023-07-29T11:03:07;23.20;82.40
8565;DHT22;4320;51.498;6.556;2023-07-29T11:05:49;23.10;76.90
8565;DHT22;4320;51.498;6.556;2023-07-29T11:08:22;23.20;74.70
8565;DHT22;4320;51.498;6.556;2023-07-29T11:11:09;23.20;77.80
8565;DHT22;4320;51.498;6.556;2023-07-29T11:13:38;23.30;85.90
8565;DHT22;4320;51.498;6.556;2023-07-29T11:16:05;23.50;87.80
8565;DHT22;4320;51.498;6.556;2023-07-29T11:18:33;23.70;88.90
8565;DHT22;4320;51.498;6.556;2023-07-29T11:21:03;23.70;76.30
8565;DHT22;4320;51.498;6.556;2023-07-29T11:23:37;23.90;68.90
8565;DHT22;4320;51.498;6.556;2023-07-29T11:26:04;24.00;66.90
8565;DHT22;4320;51.498;6.556;2023-07-29T11:28:30;23.90;63.80
8565;DHT22;4320;51.498;6.556;2023-07-29T11:30:57;23.80;61.80
8565;DHT22;4320;51.498;6.556;2023-07-29T11:33:25;23.80;60.00
8565;DHT22;4320;51.498;6.556;2023-07-29T11:35:51;23.70;58.90
8565;DHT22;4320;51.498;6.556;2023-07-29T11:38:19;24.00;61.70
8565;DHT22;4320;51.498;6.556;2023-07-29T11:40:59;24.30;53.50
8565;DHT22;4320;51.498;6.556;2023-07-29T11:43:25;24.20;54.60
8565;DHT22;4320;51.498;6.556;2023-07-29T11:45:52;24.20;53.40
8565;DHT22;4320;51.498;6.556;2023-07-29T11:48:18;23.90;50.60
8565;DHT22;4320;51.498;6.556;2023-07-29T11:50:45;23.70;50.80
8565;DHT22;4320;51.498;6.556;2023-07-29T11:53:11;23.50;53.30
8565;DHT22;4320;51.498;6.556;2023-07-29T11:55:37;23.50;56.60
8565;DHT22;4320;51.498;6.556;2023-07-29T11:58:04;23.60;60.20
8565;DHT22;4320;51.498;6.556;2023-07-29T12:00:30;23.70;57.30
8565;DHT22;4320;51.498;6.556;2023-07-29T12:02:56;23.70;57.40
8565;DHT22;4320;51.498;6.556;2023-07-29T12:05:23;23.80;53.20
8565;DHT22;4320;51.498;6.556;2023-07-29T12:07:49;23.70;51.10
8565;DHT22;4320;51.498;6.556;2023-07-29T12:10:15;23.70;50.90
8565;DHT22;4320;51.498;6.556;2023-07-29T12:12:44;23.70;54.00
8565;DHT22;4320;51.498;6.556;2023-07-29T12:15:11;23.60;54.90
8565;DHT22;4320;51.498;6.556;2023-07-29T12:17:40;23.90;49.10
8565;DHT22;4320;51.498;6.556;2023-07-29T12:20:09;24.00;47.20
8565;DHT22;4320;51.498;6.556;2023-07-29T12:22:35;24.00;45.40
8565;DHT22;4320;51.498;6.556;2023-07-29T12:25:01;23.90;48.10
8565;DHT22;4320;51.498;6.556;2023-07-29T12:27:30;24.10;44.20
8565;DHT22;4320;51.498;6.556;2023-07-29T12:29:55;24.10;38.30
8565;DHT22;4320;51.498;6.556;2023-07-29T12:32:25;24.40;29.10
8565;DHT22;4320;51.498;6.556;2023-07-29T12:34:53;24.90;27.30
8565;DHT22;4320;51.498;6.556;2023-07-29T12:37:18;25.00;24.60
8565;DHT22;4320;51.498;6.556;2023-07-29T12:39:44;24.90;14.20
8565;DHT22;4320;51.498;6.556;2023-07-29T12:42:10;24.60;9.40
8565;DHT22;4320;51.498;6.556;2023-07-29T12:44:36;24.30;16.80
8565;DHT22;4320;51.498;6.556;2023-07-29T12:47:04;24.20;18.00
8565;DHT22;4320;51.498;6.556;2023-07-29T12:49:31;24.00;16.90
8565;DHT22;4320;51.498;6.556;2023-07-29T12:51:58;24.00;18.80
8565;DHT22;4320;51.498;6.556;2023-07-29T12:54:24;23.90;17.40
8565;DHT22;4320;51.498;6.556;2023-07-29T12:56:49;23.90;16.40
8565;DHT22;4320;51.498;6.556;2023-07-29T12:59:15;23.90;13.50
8565;DHT22;4320;51.498;6.556;2023-07-29T13:01:41;23.90;17.00
8565;DHT22;4320;51.498;6.556;2023-07-29T13:04:06;24.10;19.00
8565;DHT22;4320;51.498;6.556;2023-07-29T13:06:32;24.20;18.70
8565;DHT22;4320;51.498;6.556;2023-07-29T13:08:57;24.20;20.10
8565;DHT22;4320;51.498;6.556;2023-07-29T13:11:23;24.10;16.10
8565;DHT22;4320;51.498;6.556;2023-07-29T13:13:49;24.00;16.60
8565;DHT22;4320;51.498;6.556;2023-07-29T13:16:15;23.80;18.40
8565;DHT22;4320;51.498;6.556;2023-07-29T13:18:40;23.60;20.90
8565;DHT22;4320;51.498;6.556;2023-07-29T13:21:06;23.60;20.50
8565;DHT22;4320;51.498;6.556;2023-07-29T13:23:32;23.60;22.30
8565;DHT22;4320;51.498;6.556;2023-07-29T13:25:57;23.50;25.40
8565;DHT22;4320;51.498;6.556;2023-07-29T13:28:23;23.40;29.00
8565;DHT22;4320;51.498;6.556;2023-07-29T13:30:49;23.40;45.30
8565;DHT22;4320;51.498;6.556;2023-07-29T13:33:14;23.20;77.00
8565;DHT22;4320;51.498;6.556;2023-07-29T13:35:40;22.40;99.90
8565;DHT22;4320;51.498;6.556;2023-07-29T13:38:06;22.10;99.90
8565;DHT22;4320;51.498;6.556;2023-07-29T13:40:31;21.90;99.90
8565;DHT22;4320;51.498;6.556;2023-07-29T13:42:57;21.70;99.90
8565;DHT22;4320;51.498;6.556;2023-07-29T13:45:23;21.20;99.90
8565;DHT22;4320;51.498;6.556;2023-07-29T13:47:49;21.10;99.90
8565;DHT22;4320;51.498;6.556;2023-07-29T13:50:16;21.10;99.90
8565;DHT22;4320;51.498;6.556;2023-07-29T13:52:42;20.90;99.90
8565;DHT22;4320;51.498;6.556;2023-07-29T13:55:07;20.70;99.90
8565;DHT22;4320;51.498;6.556;2023-07-29T13:57:33;20.50;99.90
8565;DHT22;4320;51.498;6.556;2023-07-29T13:59:59;20.40;99.90
8565;DHT22;4320;51.498;6.556;2023-07-29T14:02:24;20.40;99.90
8565;DHT22;4320;51.498;6.556;2023-07-29T14:04:54;20.40;99.90
8565;DHT22;4320;51.498;6.556;2023-07-29T14:07:19;20.30;99.90
8565;DHT22;4320;51.498;6.556;2023-07-29T14:09:45;20.00;99.90
8565;DHT22;4320;51.498;6.556;2023-07-29T14:12:11;19.90;99.90
8565;DHT22;4320;51.498;6.556;2023-07-29T14:14:40;19.90;99.90
8565;DHT22;4320;51.498;6.556;2023-07-29T14:17:06;20.00;99.90
8565;DHT22;4320;51.498;6.556;2023-07-29T14:19:34;20.40;99.90
8565;DHT22;4320;51.498;6.556;2023-07-29T14:21:59;20.50;99.90
8565;DHT22;4320;51.498;6.556;2023-07-29T14:24:25;20.70;99.90
8565;DHT22;4320;51.498;6.556;2023-07-29T14:26:51;21.10;99.90
8565;DHT22;4320;51.498;6.556;2023-07-29T14:29:16;21.40;99.90
8565;DHT22;4320;51.498;6.556;2023-07-29T14:31:42;21.40;99.90
8565;DHT22;4320;51.498;6.556;2023-07-29T14:34:07;21.20;99.90
8565;DHT22;4320;51.498;6.556;2023-07-29T14:36:33;21.40;99.90
8565;DHT22;4320;51.498;6.556;2023-07-29T14:38:58;21.50;99.90
8565;DHT22;4320;51.498;6.556;2023-07-29T14:41:24;21.50;99.90
8565;DHT22;4320;51.498;6.556;2023-07-29T14:43:50;21.50;99.90
8565;DHT22;4320;51.498;6.556;2023-07-29T14:46:15;21.60;99.90
8565;DHT22;4320;51.498;6.556;2023-07-29T14:48:41;21.70;99.90
8565;DHT22;4320;51.498;6.556;2023-07-29T14:51:06;21.60;99.90
8565;DHT22;4320;51.498;6.556;2023-07-29T14:53:32;21.50;99.90
8565;DHT22;4320;51.498;6.556;2023-07-29T14:55:58;21.50;99.90
8565;DHT22;4320;51.498;6.556;2023-07-29T14:58:24;21.60;99.90
8565;DHT22;4320;51.498;6.556;2023-07-29T15:00:51;21.70;99.90
8565;DHT22;4320;51.498;6.556;2023-07-29T15:03:17;21.60;99.90
8565;DHT22;4320;51.498;6.556;2023-07-29T15:05:43;21.70;99.90
8565;DHT22;4320;51.498;6.556;2023-07-29T15:08:08;21.70;99.90
8565;DHT22;4320;51.498;6.556;2023-07-29T15:10:34;21.60;99.90
8565;DHT22;4320;51.498;6.556;2023-07-29T15:13:00;21.70;99.90
8565;DHT22;4320;51.498;6.556;2023-07-29T15:15:25;21.80;99.90
8565;DHT22;4320;51.498;6.556;2023-07-29T15:17:51;21.80;99.90
8565;DHT22;4320;51.498;6.556;2023-07-29T15:20:16;21.90;99.90
8565;DHT22;4320;51.498;6.556;2023-07-29T15:22:42;22.20;99.90
8565;DHT22;4320;51.498;6.556;2023-07-29T15:25:09;22.00;99.90
8565;DHT22;4320;51.498;6.556;2023-07-29T15:27:35;22.00;99.90
8565;DHT22;4320;51.498;6.556;2023-07-29T15:30:01;22.10;99.90
8565;DHT22;4320;51.498;6.556;2023-07-29T15:32:26;22.10;99.90
8565;DHT22;4320;51.498;6.556;2023-07-29T15:34:53;22.10;99.90
8565;DHT22;4320;51.498;6.556;2023-07-29T15:37:18;22.10;99.90
8565;DHT22;4320;51.498;6.556;2023-07-29T15:39:44;22.20;99.90
8565;DHT22;4320;51.498;6.556;2023-07-29T15:42:10;22.30;99.90
8565;DHT22;4320;51.498;6.556;2023-07-29T15:44:35;22.30;99.90
8565;DHT22;4320;51.498;6.556;2023-07-29T15:47:02;22.30;99.90
8565;DHT22;4320;51.498;6.556;2023-07-29T15:49:28;22.10;99.90
8565;DHT22;4320;51.498;6.556;2023-07-29T15:51:54;21.90;99.90
8565;DHT22;4320;51.498;6.556;2023-07-29T15:54:20;21.90;99.90
8565;DHT22;4320;51.498;6.556;2023-07-29T15:56:45;21.90;99.90
8565;DHT22;4320;51.498;6.556;2023-07-29T15:59:11;21.90;99.90
8565;DHT22;4320;51.498;6.556;2023-07-29T16:01:36;21.90;99.90